CFN7 weather

Sundre Airport
Sundre, Alberta, Canada

Public forecast

Using degrees Celsius for public forecast. Weather courtesy of forecast.io.

Closest aviation weather report (METAR) to Sundre Airport

Closest report is Red Deer Regional Airport, 37.9 nm (70.2 km) NE. Retrieved 2020/02/26 06:00 UTC (44 minutes ago):

CYQF 260600Z 25004KT 15SM SCT060 BKN120 M08/M11 A3011 RMK SC4AC3 SLP265

Closest aviation forecast (TAF) to Sundre Airport

Closest forecast is Red Deer Regional Airport, 37.9 nm (70.2 km) NE. Retrieved 2020/02/26 06:42 UTC (2 minutes ago):

TAF CYQF 260538Z 2606/2618 VRB03KT P6SM FEW040 BKN080 TEMPO 2606/2609 6SM -SN BKN040 FM261200 22005KT P6SM SCT080 TEMPO 2612/2616 BKN080 RMK NXT FCST BY 261200Z